Portada
METAR-TAF:

METAR-TAF

Aeroports :

Schaffen

Diest, Bèlgica

latitud: 51-00N, longitud: 005-04E, altitud: 30 m

Observació

L'informe es va fer fa 28 minuts, a les 23:03 UTC
Vent 5 kt del Nord
Temperatura 4°C
Humitat 93%
Pressió 1009 hPa
Visibilitat: 4900 m
pluja

METAR: EBDT 172303Z AUTO 36005KT 4900 -RA SCT013/// BKN033/// 04/03 Q1009 GRN

Hora: 00:31 (23:31 UTC)


TAF: manca

Observacions i pronòstics meteorològics de més de 4000 aeroports (METAR i TAF).

Les estacions disponibles són els punts grocs i vermells al mapa.

Posi el ratolí al punt desitjat per veure el nom de l'estació.

Feu clic per veure les observacions i els pronòstics meteorològics.

Per canviar el mapa: feu clic els botons verds amb una creu de color negre per apropar; al botó verd amb un guió per allunyar la imatge; o en les fletxes verdes per a mapes adjacents.


METAR-TAF: